createdAt,value
2023-05-11T00:04:41.663Z,100.00
2023-05-11T00:09:45.007Z,100.00
2023-05-11T00:14:49.609Z,100.00
2023-05-11T00:19:52.815Z,100.00
2023-05-11T00:24:55.939Z,100.00
2023-05-11T00:30:00.585Z,100.00
2023-05-11T00:35:05.737Z,100.00
2023-05-11T00:40:10.046Z,100.00
2023-05-11T00:45:18.447Z,100.00
2023-05-11T00:50:22.576Z,100.00
2023-05-11T00:55:26.295Z,100.00
2023-05-11T01:00:31.092Z,100.00
2023-05-11T01:05:43.469Z,100.00
2023-05-11T01:10:56.823Z,100.00
2023-05-11T01:16:06.867Z,100.00
2023-05-11T01:21:12.652Z,100.00
2023-05-11T01:26:44.392Z,100.00
2023-05-11T01:31:50.796Z,100.00
2023-05-11T01:36:59.402Z,100.00
2023-05-11T01:42:08.357Z,100.00
2023-05-11T01:47:19.084Z,100.00
2023-05-11T01:52:26.331Z,100.00
2023-05-11T01:57:32.360Z,100.00
2023-05-11T02:02:38.094Z,100.00
2023-05-11T02:07:46.573Z,100.00
2023-05-11T02:12:53.565Z,100.00
2023-05-11T02:17:59.149Z,100.00
2023-05-11T02:23:02.639Z,100.00
2023-05-11T02:28:06.878Z,100.00
2023-05-11T02:33:17.620Z,100.00
2023-05-11T02:38:21.333Z,100.00
2023-05-11T02:43:28.093Z,100.00
2023-05-11T02:48:39.792Z,100.00
2023-05-11T02:53:45.562Z,100.00
2023-05-11T02:58:50.126Z,100.00
2023-05-11T03:03:55.358Z,100.00
2023-05-11T03:08:58.971Z,100.00
2023-05-11T03:14:03.051Z,100.00
2023-05-11T03:19:09.293Z,100.00
2023-05-11T03:24:13.361Z,100.00
2023-05-11T03:29:17.375Z,100.00
2023-05-11T03:34:22.055Z,100.00
2023-05-11T03:39:26.073Z,100.00
2023-05-11T03:44:31.422Z,100.00
2023-05-11T03:49:38.755Z,100.00
2023-05-11T03:54:43.227Z,100.00
2023-05-11T03:59:46.497Z,100.00
2023-05-11T04:04:52.479Z,100.00
2023-05-11T04:09:56.055Z,100.00
2023-05-11T04:15:00.250Z,100.00
2023-05-11T04:20:05.329Z,100.00
2023-05-11T04:25:12.486Z,100.00
2023-05-11T04:30:16.161Z,100.00
2023-05-11T04:35:22.244Z,100.00
2023-05-11T04:40:26.857Z,100.00
2023-05-11T04:45:31.605Z,100.00
2023-05-11T04:50:39.550Z,100.00
2023-05-11T04:55:43.610Z,100.00
2023-05-11T05:00:46.968Z,100.00
2023-05-11T05:05:52.515Z,100.00
2023-05-11T05:11:02.098Z,100.00
2023-05-11T05:16:05.737Z,100.00
2023-05-11T05:21:15.320Z,100.00
2023-05-11T05:26:18.492Z,100.00
2023-05-11T05:31:21.838Z,100.00
2023-05-11T05:36:29.270Z,100.00
2023-05-11T05:41:32.833Z,100.00
2023-05-11T05:46:43.680Z,100.00
2023-05-11T05:51:59.577Z,100.00
2023-05-11T05:57:03.663Z,100.00
2023-05-11T06:02:09.876Z,100.00
2023-05-11T06:07:16.463Z,100.00
2023-05-11T06:12:23.489Z,100.00
2023-05-11T06:17:28.578Z,100.00
2023-05-11T06:22:33.501Z,100.00
2023-05-11T06:27:36.843Z,100.00
2023-05-11T06:32:40.455Z,100.00
2023-05-11T06:37:45.322Z,100.00
2023-05-11T06:42:48.448Z,85.07
2023-05-11T06:47:51.640Z,74.13
2023-05-11T06:52:56.469Z,65.50
2023-05-11T06:57:59.599Z,63.60
2023-05-11T07:03:02.983Z,63.59
2023-05-11T07:08:08.591Z,60.65
2023-05-11T07:13:11.958Z,61.16
2023-05-11T07:18:16.042Z,60.97
2023-05-11T07:23:20.566Z,60.89
2023-05-11T07:28:23.787Z,59.74
2023-05-11T07:33:27.006Z,61.87
2023-05-11T07:38:31.630Z,61.93
2023-05-11T07:43:34.826Z,60.27
2023-05-11T07:48:37.937Z,62.11
2023-05-11T07:53:42.673Z,62.94
2023-05-11T07:58:45.881Z,62.29
2023-05-11T08:03:49.424Z,63.76
2023-05-11T08:08:54.131Z,63.09
2023-05-11T08:13:57.312Z,63.99
2023-05-11T08:19:00.676Z,63.43
2023-05-11T08:24:06.000Z,63.72
2023-05-11T08:29:09.635Z,62.87
2023-05-11T08:34:18.965Z,62.90
2023-05-11T08:39:45.427Z,61.32
2023-05-11T08:44:49.392Z,61.37
2023-05-11T08:49:53.607Z,61.94
2023-05-11T08:54:58.244Z,60.27
2023-05-11T09:00:04.677Z,61.51
2023-05-11T09:05:09.966Z,61.74
2023-05-11T09:10:16.291Z,61.21
2023-05-11T09:15:19.751Z,60.48
2023-05-11T09:20:29.672Z,59.62
2023-05-11T09:25:35.314Z,60.34
2023-05-11T09:30:38.842Z,61.66
2023-05-11T09:35:44.460Z,60.67
2023-05-11T09:40:56.608Z,60.75
2023-05-11T09:46:04.371Z,60.60
2023-05-11T09:51:09.573Z,61.91
2023-05-11T09:56:15.823Z,62.32
2023-05-11T10:01:20.859Z,63.16
2023-05-11T10:06:24.297Z,62.33
2023-05-11T10:11:29.102Z,62.49
2023-05-11T10:16:32.978Z,62.33
2023-05-11T10:21:37.176Z,62.02
2023-05-11T10:26:42.731Z,61.96
2023-05-11T10:31:48.414Z,61.06
2023-05-11T10:36:53.704Z,62.71
2023-05-11T10:42:12.198Z,62.19
2023-05-11T10:47:36.043Z,62.38
2023-05-11T10:53:01.208Z,60.39
2023-05-11T10:58:10.679Z,60.52
2023-05-11T11:03:15.784Z,59.39
2023-05-11T11:08:19.197Z,60.68
2023-05-11T11:13:24.551Z,60.88
2023-05-11T11:18:30.238Z,61.43
2023-05-11T11:23:49.176Z,61.35
2023-05-11T11:29:14.835Z,60.98
2023-05-11T11:34:37.791Z,60.55
2023-05-11T11:39:50.477Z,58.96
2023-05-11T11:45:32.540Z,59.32
2023-05-11T11:50:36.036Z,58.75
2023-05-11T11:55:51.277Z,57.47
2023-05-11T12:00:58.011Z,58.41
2023-05-11T12:06:02.930Z,57.68
2023-05-11T12:11:08.344Z,56.85
2023-05-11T12:16:14.253Z,56.42
2023-05-11T12:21:21.264Z,55.42
2023-05-11T12:26:26.588Z,55.28
2023-05-11T12:31:36.995Z,54.38
2023-05-11T12:36:40.765Z,54.72
2023-05-11T12:41:45.004Z,53.49
2023-05-11T12:46:50.815Z,53.51
2023-05-11T12:52:04.281Z,54.04
2023-05-11T12:57:08.950Z,53.77
2023-05-11T13:02:18.235Z,54.11
2023-05-11T13:07:29.107Z,52.26
2023-05-11T13:12:34.255Z,51.00
2023-05-11T13:17:40.345Z,51.15
2023-05-11T13:22:44.095Z,50.87
2023-05-11T13:27:47.455Z,50.66
2023-05-11T13:32:52.257Z,49.84
2023-05-11T13:37:55.659Z,49.87
2023-05-11T13:42:59.053Z,49.81
2023-05-11T13:48:03.841Z,49.30
2023-05-11T13:53:08.315Z,49.16
2023-05-11T13:58:11.513Z,48.63
2023-05-11T14:03:16.490Z,48.02
2023-05-11T14:08:19.934Z,47.68
2023-05-11T14:13:23.945Z,49.31
2023-05-11T14:18:28.991Z,50.56
2023-05-11T14:23:32.577Z,51.41
2023-05-11T14:28:36.087Z,51.87
2023-05-11T14:33:43.373Z,52.94
2023-05-11T14:38:47.432Z,52.79
2023-05-11T14:43:50.668Z,52.87
2023-05-11T14:48:55.321Z,53.16
2023-05-11T14:53:58.444Z,53.45
2023-05-11T14:59:01.584Z,53.90
2023-05-11T15:04:06.567Z,53.96
2023-05-11T15:09:10.052Z,53.12
2023-05-11T15:14:13.336Z,53.60
2023-05-11T15:19:18.244Z,51.83
2023-05-11T15:24:23.921Z,51.91
2023-05-11T15:29:27.255Z,52.49
2023-05-11T15:34:32.213Z,50.63
2023-05-11T15:39:35.676Z,49.77
2023-05-11T15:44:39.054Z,48.72
2023-05-11T15:49:43.540Z,47.57
2023-05-11T15:54:46.756Z,46.65
2023-05-11T15:59:50.017Z,46.58
2023-05-11T16:04:54.847Z,47.04
2023-05-11T16:09:58.249Z,47.77
2023-05-11T16:15:01.562Z,48.84
2023-05-11T16:20:07.279Z,49.34
2023-05-11T16:25:10.892Z,50.10
2023-05-11T16:30:22.312Z,50.33
2023-05-11T16:35:29.601Z,49.05
2023-05-11T16:40:32.883Z,48.30
2023-05-11T16:45:36.089Z,47.94
2023-05-11T16:50:40.986Z,47.93
2023-05-11T16:55:44.282Z,47.60
2023-05-11T17:00:47.556Z,47.34
2023-05-11T17:05:52.408Z,46.18
2023-05-11T17:10:55.945Z,46.38
2023-05-11T17:15:59.334Z,45.94
2023-05-11T17:21:04.460Z,45.80
2023-05-11T17:26:11.042Z,45.87
2023-05-11T17:31:17.016Z,45.63
2023-05-11T17:36:21.837Z,45.86
2023-05-11T17:41:25.068Z,45.42
2023-05-11T17:46:30.193Z,45.50
2023-05-11T17:51:35.672Z,44.95
2023-05-11T17:56:45.094Z,44.61
2023-05-11T18:01:48.774Z,45.11
2023-05-11T18:06:53.801Z,45.40
2023-05-11T18:11:59.943Z,45.63
2023-05-11T18:17:04.487Z,45.92
2023-05-11T18:22:09.372Z,46.19
2023-05-11T18:27:15.344Z,46.39
2023-05-11T18:32:20.014Z,46.98
2023-05-11T18:37:25.562Z,47.08
2023-05-11T18:42:29.542Z,47.80
2023-05-11T18:47:35.052Z,48.27
2023-05-11T18:52:40.019Z,48.22
2023-05-11T18:57:43.347Z,48.81
2023-05-11T19:02:48.212Z,48.63
2023-05-11T19:07:53.163Z,48.88
2023-05-11T19:12:56.433Z,49.14
2023-05-11T19:17:59.663Z,49.79
2023-05-11T19:23:04.666Z,49.74
2023-05-11T19:28:08.472Z,49.89
2023-05-11T19:33:18.806Z,50.15
2023-05-11T19:38:26.379Z,49.68
2023-05-11T19:43:33.686Z,49.76
2023-05-11T19:48:40.489Z,50.39
2023-05-11T19:53:52.497Z,50.60
2023-05-11T19:58:55.862Z,50.56
2023-05-11T20:04:06.673Z,50.02
2023-05-11T20:09:11.993Z,50.05
2023-05-11T20:14:27.574Z,50.15
2023-05-11T20:19:44.038Z,49.66
2023-05-11T20:24:57.532Z,50.09
2023-05-11T20:30:01.770Z,49.86
2023-05-11T20:35:06.233Z,49.38
2023-05-11T20:40:14.822Z,49.53
2023-05-11T20:45:22.288Z,49.86
2023-05-11T20:50:26.934Z,49.56
2023-05-11T20:55:38.112Z,49.48
2023-05-11T21:00:45.656Z,49.86
2023-05-11T21:06:03.373Z,50.65
2023-05-11T21:11:08.368Z,50.72
2023-05-11T21:16:12.091Z,51.21
2023-05-11T21:21:16.056Z,52.43
2023-05-11T21:26:21.681Z,52.18
2023-05-11T21:31:25.362Z,52.54
2023-05-11T21:36:28.668Z,52.66
2023-05-11T21:41:33.367Z,53.03
2023-05-11T21:46:36.787Z,52.94
2023-05-11T21:51:40.108Z,53.59
2023-05-11T21:56:44.990Z,53.69
2023-05-11T22:01:49.976Z,53.71
2023-05-11T22:07:01.551Z,54.16
2023-05-11T22:12:07.503Z,54.51
2023-05-11T22:17:11.435Z,54.77
2023-05-11T22:22:14.767Z,55.01
2023-05-11T22:27:22.492Z,55.20
2023-05-11T22:32:27.488Z,55.48
2023-05-11T22:37:38.115Z,55.88
2023-05-11T22:42:46.735Z,56.21
2023-05-11T22:47:58.146Z,56.29
2023-05-11T22:53:01.320Z,56.22
2023-05-11T22:58:05.974Z,56.57
2023-05-11T23:03:09.499Z,56.68
2023-05-11T23:08:20.566Z,57.01
2023-05-11T23:13:29.066Z,57.37
2023-05-11T23:18:44.580Z,57.33
2023-05-11T23:23:47.963Z,57.80
2023-05-11T23:28:52.574Z,57.61
2023-05-11T23:33:56.019Z,57.78
2023-05-11T23:38:59.567Z,58.50
2023-05-11T23:44:04.186Z,58.33
2023-05-11T23:49:07.832Z,58.48
2023-05-11T23:54:11.534Z,58.71
2023-05-11T23:59:16.043Z,58.90
